Time;durP1;ratioP1;P1;durP2;ratioP2;P2;SDS_P1;SDS_P2;PMS_P1;PMS_P2;Temp;Humidity;BMP_temperature;BMP_pressure;BME280_temperature;BME280_humidity;BME280_pressure;Samples;Min_cycle;Max_cycle;Signal;HPM_P1;HPM_P2
2024/01/19 00:01:43;;;;;;;39.22;35.22;;;8.00;99.90;;;;;;5066257;28;20078;-66
2024/01/19 00:04:08;;;;;;;39.63;35.45;;;8.00;99.90;;;;;;5066751;28;20044;-66
2024/01/19 00:06:38;;;;;;;40.83;36.58;;;8.00;99.90;;;;;;5067099;28;20095;-66
2024/01/19 00:09:03;;;;;;;42.20;37.67;;;8.00;99.90;;;;;;5067158;28;20048;-66
2024/01/19 00:11:29;;;;;;;41.95;37.45;;;8.00;99.90;;;;;;5068372;28;20482;-66
2024/01/19 00:13:54;;;;;;;46.67;40.03;;;7.90;99.90;;;;;;5067145;28;20123;-66
2024/01/19 00:16:20;;;;;;;49.05;44.08;;;7.90;99.90;;;;;;5064027;28;20037;-66
2024/01/19 00:18:45;;;;;;;54.13;48.38;;;8.00;99.90;;;;;;5048521;28;20051;-66
2024/01/19 00:21:11;;;;;;;62.45;50.03;;;7.90;99.90;;;;;;5062339;28;20096;-66
2024/01/19 00:23:37;;;;;;;55.88;49.67;;;7.90;99.90;;;;;;5067345;28;20767;-66
2024/01/19 00:26:02;;;;;;;56.30;50.05;;;7.80;99.90;;;;;;5067904;28;20064;-66
2024/01/19 00:28:28;;;;;;;55.22;48.22;;;8.10;99.90;;;;;;5066664;28;20037;-66
2024/01/19 00:30:54;;;;;;;48.75;43.80;;;8.20;99.90;;;;;;5065760;28;20040;-66
2024/01/19 00:33:19;;;;;;;51.60;43.90;;;8.20;99.90;;;;;;5066994;28;20044;-66
2024/01/19 00:35:45;;;;;;;49.55;41.85;;;8.50;99.90;;;;;;5066900;28;20036;-66
2024/01/19 00:38:10;;;;;;;45.17;37.80;;;8.40;99.90;;;;;;5066984;28;20044;-66
2024/01/19 00:40:36;;;;;;;45.40;37.13;;;8.60;99.90;;;;;;5064517;28;20139;-66
2024/01/19 00:43:03;;;;;;;42.13;37.63;;;8.50;99.90;;;;;;5053130;28;20390;-66
2024/01/19 00:45:28;;;;;;;43.63;36.55;;;8.50;99.90;;;;;;5049355;28;20052;-66
2024/01/19 00:47:54;;;;;;;42.65;35.67;;;8.60;97.60;;;;;;5066894;28;20558;-66
2024/01/19 00:50:19;;;;;;;44.90;36.38;;;8.50;90.10;;;;;;5066710;28;20032;-66
2024/01/19 00:52:45;;;;;;;41.25;35.08;;;8.60;76.00;;;;;;5066058;28;20036;-66
2024/01/19 00:55:11;;;;;;;44.17;36.85;;;8.60;67.10;;;;;;5067852;28;20040;-66
2024/01/19 00:57:37;;;;;;;51.67;41.70;;;8.40;64.40;;;;;;5066875;28;20120;-66
2024/01/19 01:00:03;;;;;;;52.42;43.28;;;8.50;64.80;;;;;;5066491;28;20167;-66
2024/01/19 01:02:29;;;;;;;48.45;39.78;;;8.60;63.80;;;;;;5066666;28;20121;-63
2024/01/19 01:04:55;;;;;;;42.70;37.85;;;8.60;62.30;;;;;;5065872;28;20443;-64
2024/01/19 01:07:21;;;;;;;44.65;36.70;;;8.40;59.20;;;;;;5066168;28;20129;-62
2024/01/19 01:09:47;;;;;;;45.60;39.03;;;8.50;53.40;;;;;;5066215;28;20047;-62
2024/01/19 01:12:13;;;;;;;50.40;40.80;;;8.70;50.10;;;;;;5048289;28;20044;-64
2024/01/19 01:14:39;;;;;;;57.13;39.58;;;8.60;47.90;;;;;;5065624;28;20420;-63
2024/01/19 01:17:04;;;;;;;45.53;40.83;;;8.60;44.50;;;;;;5065529;28;20094;-63
2024/01/19 01:19:31;;;;;;;44.67;39.88;;;8.40;46.80;;;;;;5047670;28;20488;-64
2024/01/19 01:21:57;;;;;;;43.03;37.05;;;8.50;52.20;;;;;;5065872;28;20048;-63
2024/01/19 01:24:23;;;;;;;41.60;37.25;;;8.40;56.20;;;;;;5049142;28;20044;-64
2024/01/19 01:26:48;;;;;;;41.80;37.60;;;8.30;58.90;;;;;;5066279;28;20045;-64
2024/01/19 01:29:14;;;;;;;44.67;38.33;;;8.30;69.60;;;;;;5064683;28;20408;-64
2024/01/19 01:31:39;;;;;;;47.30;37.38;;;8.40;73.60;;;;;;5057562;28;20033;-62
2024/01/19 01:34:05;;;;;;;49.47;44.10;;;8.20;72.90;;;;;;5062850;28;20040;-64
2024/01/19 01:36:31;;;;;;;48.88;43.40;;;8.20;74.90;;;;;;5064125;28;20056;-63
2024/01/19 01:38:56;;;;;;;41.75;37.28;;;8.10;73.00;;;;;;5065580;28;20086;-64
2024/01/19 01:41:22;;;;;;;45.60;40.92;;;8.20;63.90;;;;;;5063216;28;20059;-62
2024/01/19 01:43:48;;;;;;;46.65;41.95;;;8.00;64.50;;;;;;5057777;28;20052;-64
2024/01/19 01:46:13;;;;;;;48.90;43.78;;;7.90;66.00;;;;;;5065952;28;20059;-62
2024/01/19 01:48:39;;;;;;;51.80;46.35;;;8.00;68.40;;;;;;5064797;28;20673;-62
2024/01/19 01:51:07;;;;;;;51.50;46.00;;;7.80;72.50;;;;;;5065464;28;20423;-63
2024/01/19 01:53:33;;;;;;;45.33;40.40;;;8.00;80.10;;;;;;5056802;28;20378;-63
2024/01/19 01:55:59;;;;;;;44.13;39.80;;;8.10;72.90;;;;;;5065445;28;20726;-62
2024/01/19 01:58:24;;;;;;;37.42;33.53;;;8.20;63.30;;;;;;5064720;28;20169;-62
2024/01/19 02:00:51;;;;;;;46.17;39.38;;;8.40;50.30;;;;;;5065869;28;20149;-63
2024/01/19 02:03:17;;;;;;;39.80;35.58;;;8.30;44.80;;;;;;5055340;28;20059;-64
2024/01/19 02:05:42;;;;;;;44.28;37.25;;;8.40;45.40;;;;;;5063121;28;20036;-62
2024/01/19 02:08:08;;;;;;;42.22;35.33;;;8.50;46.40;;;;;;5062983;28;20130;-63
2024/01/19 02:10:34;;;;;;;44.47;39.28;;;8.40;46.20;;;;;;5065509;28;20041;-63
2024/01/19 02:12:59;;;;;;;52.22;42.97;;;8.50;36.70;;;;;;5065089;28;20036;-63
2024/01/19 02:15:26;;;;;;;43.60;36.70;;;8.50;26.20;;;;;;5065414;28;20097;-62
2024/01/19 02:17:52;;;;;;;43.75;38.55;;;8.40;17.30;;;;;;5064637;28;20145;-63
2024/01/19 02:20:18;;;;;;;46.17;37.15;;;8.50;10.40;;;;;;5065066;28;20048;-63
2024/01/19 02:22:45;;;;;;;40.95;36.47;;;8.50;7.70;;;;;;5065199;28;20089;-64
2024/01/19 02:25:12;;;;;;;46.80;35.60;;;8.50;22.30;;;;;;5065708;28;20119;-62
2024/01/19 02:27:38;;;;;;;39.38;35.58;;;8.40;37.60;;;;;;5065418;28;20059;-63
2024/01/19 02:30:09;;;;;;;37.95;34.15;;;8.40;49.00;;;;;;5064224;28;20060;-62
2024/01/19 02:32:35;;;;;;;34.75;31.23;;;8.20;45.40;;;;;;5065293;28;20475;-62
2024/01/19 02:35:01;;;;;;;35.17;31.58;;;8.10;47.20;;;;;;5064456;28;20120;-63
2024/01/19 02:37:27;;;;;;;40.38;32.50;;;8.30;57.50;;;;;;5065410;28;20054;-63
2024/01/19 02:39:53;;;;;;;39.75;35.65;;;8.30;72.90;;;;;;5065493;28;20505;-62
2024/01/19 02:42:18;;;;;;;41.47;37.38;;;8.30;85.10;;;;;;5049109;28;20040;-64
2024/01/19 02:44:44;;;;;;;40.15;35.97;;;8.20;82.70;;;;;;5046587;28;20164;-63
2024/01/19 02:47:09;;;;;;;39.00;35.00;;;8.30;67.40;;;;;;5065083;28;20048;-63
2024/01/19 02:49:35;;;;;;;39.03;35.25;;;8.30;43.90;;;;;;5064458;28;20599;-63
2024/01/19 02:52:01;;;;;;;37.70;34.08;;;8.20;30.80;;;;;;5064558;28;20205;-63
2024/01/19 02:54:26;;;;;;;37.08;33.58;;;8.40;27.20;;;;;;5066296;28;20064;-62
2024/01/19 02:56:52;;;;;;;42.78;38.28;;;8.40;21.50;;;;;;5069154;28;20826;-63
2024/01/19 02:59:17;;;;;;;40.80;36.22;;;8.30;20.20;;;;;;5069026;28;20094;-63
2024/01/19 03:01:43;;;;;;;39.10;35.03;;;8.40;19.60;;;;;;5069322;28;20052;-64
2024/01/19 03:04:09;;;;;;;41.00;36.80;;;8.20;20.00;;;;;;5068454;28;20130;-64
2024/01/19 03:06:34;;;;;;;43.45;38.78;;;8.10;22.70;;;;;;5067715;28;20746;-63
2024/01/19 03:09:00;;;;;;;45.22;40.47;;;8.30;28.10;;;;;;5069188;28;20047;-62
2024/01/19 03:11:25;;;;;;;52.97;43.08;;;8.10;36.90;;;;;;5069481;28;20032;-63
2024/01/19 03:13:53;;;;;;;46.05;40.33;;;8.10;43.70;;;;;;5069181;28;20041;-63
2024/01/19 03:16:18;;;;;;;50.42;41.58;;;8.10;50.70;;;;;;5068448;28;20513;-63
2024/01/19 03:18:44;;;;;;;51.95;39.80;;;8.30;51.60;;;;;;5068547;28;20044;-63
2024/01/19 03:21:12;;;;;;;47.50;42.35;;;8.20;45.40;;;;;;5068558;28;20043;-63
2024/01/19 03:23:37;;;;;;;49.45;37.35;;;8.20;27.30;;;;;;5057208;28;20110;-66
2024/01/19 03:26:03;;;;;;;36.63;32.88;;;8.20;6.10;;;;;;5068541;28;20068;-66
2024/01/19 03:28:29;;;;;;;38.10;30.48;;;8.40;1.00;;;;;;5051478;28;20041;-65
2024/01/19 03:30:54;;;;;;;34.50;31.15;;;8.50;1.00;;;;;;5068546;28;20040;-66
2024/01/19 03:33:20;;;;;;;39.10;32.90;;;8.60;1.00;;;;;;5067663;28;20047;-66
2024/01/19 03:35:45;;;;;;;39.55;32.88;;;8.80;1.00;;;;;;5068074;28;20039;-66
2024/01/19 03:38:11;;;;;;;37.50;33.42;;;8.90;5.10;;;;;;5067807;28;20048;-66
2024/01/19 03:40:37;;;;;;;42.45;38.17;;;9.70;9.10;;;;;;5054574;28;20029;-66
2024/01/19 03:43:02;;;;;;;45.88;40.97;;;8.70;11.90;;;;;;5057666;28;20052;-66
2024/01/19 03:45:28;;;;;;;43.75;38.08;;;8.60;17.70;;;;;;5068831;28;20541;-66
2024/01/19 03:47:54;;;;;;;51.83;42.20;;;8.60;24.10;;;;;;5068318;28;20067;-66
2024/01/19 03:50:19;;;;;;;45.30;40.45;;;8.30;36.80;;;;;;5067533;28;20451;-66
2024/01/19 03:52:45;;;;;;;52.58;46.90;;;8.20;45.00;;;;;;5060012;28;20043;-66
2024/01/19 03:55:10;;;;;;;49.30;44.38;;;8.20;52.30;;;;;;5068498;28;20063;-65
2024/01/19 03:57:36;;;;;;;43.00;38.40;;;8.20;57.00;;;;;;5067954;28;20041;-66
2024/01/19 04:00:05;;;;;;;38.30;34.20;;;8.20;48.80;;;;;;5050212;28;20052;-66
2024/01/19 04:02:30;;;;;;;38.63;34.63;;;8.20;23.70;;;;;;5067860;28;20036;-66
2024/01/19 04:04:56;;;;;;;39.80;35.80;;;8.10;18.50;;;;;;5066730;28;20042;-66
2024/01/19 04:07:22;;;;;;;41.78;37.35;;;8.10;17.20;;;;;;5067514;28;20494;-66
2024/01/19 04:09:47;;;;;;;37.78;33.97;;;8.10;14.70;;;;;;5067625;28;20052;-66
2024/01/19 04:12:14;;;;;;;39.15;35.28;;;8.00;13.40;;;;;;5067604;28;20029;-66
2024/01/19 04:14:41;;;;;;;39.30;35.15;;;7.80;6.00;;;;;;5067599;28;20047;-66
2024/01/19 04:17:07;;;;;;;42.17;37.92;;;7.90;1.00;;;;;;5067229;28;20024;-66
2024/01/19 04:19:33;;;;;;;40.55;36.38;;;7.90;1.00;;;;;;5067077;28;20364;-66
2024/01/19 04:21:59;;;;;;;38.17;34.28;;;7.80;1.00;;;;;;5067608;28;20047;-66
2024/01/19 04:24:24;;;;;;;46.63;35.58;;;7.90;1.00;;;;;;5067592;28;20051;-66
2024/01/19 04:26:50;;;;;;;51.22;46.08;;;7.90;1.00;;;;;;5066326;28;20109;-65
2024/01/19 04:29:15;;;;;;;42.10;35.35;;;8.10;1.00;;;;;;5067918;28;20075;-66
2024/01/19 04:31:41;;;;;;;50.05;42.95;;;8.00;1.00;;;;;;5067348;28;20850;-66
2024/01/19 04:34:07;;;;;;;52.72;47.85;;;7.90;1.00;;;;;;5049182;28;20043;-62
2024/01/19 04:36:32;;;;;;;66.45;56.08;;;8.00;3.10;;;;;;5067107;28;20076;-62
2024/01/19 04:38:58;;;;;;;48.53;41.53;;;7.80;7.70;;;;;;5065754;28;20107;-63
2024/01/19 04:41:23;;;;;;;50.83;42.83;;;7.70;12.60;;;;;;5047979;28;20041;-63
2024/01/19 04:43:49;;;;;;;51.03;42.55;;;7.90;17.60;;;;;;5062843;28;20052;-62
2024/01/19 04:46:15;;;;;;;55.65;48.40;;;7.70;23.60;;;;;;5067090;28;20550;-63
2024/01/19 04:48:40;;;;;;;56.78;46.78;;;7.70;30.00;;;;;;5066266;28;20646;-63
2024/01/19 04:51:06;;;;;;;61.25;48.28;;;7.80;39.40;;;;;;5066177;28;20048;-63
2024/01/19 04:53:32;;;;;;;66.65;52.13;;;7.90;47.40;;;;;;5066524;28;20047;-63
2024/01/19 04:55:57;;;;;;;65.65;52.33;;;7.80;52.70;;;;;;5066419;28;20410;-63
2024/01/19 04:58:23;;;;;;;68.20;52.67;;;7.70;56.70;;;;;;5066553;28;20043;-63
2024/01/19 05:00:48;;;;;;;63.97;51.50;;;7.60;60.60;;;;;;5067147;28;20040;-62
2024/01/19 05:03:15;;;;;;;50.28;43.83;;;7.60;63.00;;;;;;5065892;28;20503;-62
2024/01/19 05:05:40;;;;;;;59.42;48.33;;;7.80;67.10;;;;;;5066544;28;20040;-62
2024/01/19 05:08:06;;;;;;;52.10;46.35;;;7.80;72.00;;;;;;5066903;28;20059;-64
2024/01/19 05:10:32;;;;;;;60.10;48.90;;;7.60;69.90;;;;;;5060810;28;20079;-62
2024/01/19 05:12:58;;;;;;;58.55;50.40;;;7.60;68.80;;;;;;5049017;28;20055;-63
2024/01/19 05:15:23;;;;;;;50.67;43.80;;;7.70;60.70;;;;;;5061767;28;20045;-63
2024/01/19 05:17:49;;;;;;;60.53;44.15;;;7.80;50.30;;;;;;5052635;28;20390;-64
2024/01/19 05:20:14;;;;;;;52.17;42.03;;;7.90;38.30;;;;;;5066248;28;20091;-62
2024/01/19 05:22:40;;;;;;;47.08;38.47;;;8.10;28.30;;;;;;5048373;28;20044;-63
2024/01/19 05:25:07;;;;;;;53.25;41.58;;;7.90;27.90;;;;;;5054657;28;20072;-63
2024/01/19 05:27:32;;;;;;;46.30;39.63;;;8.10;13.30;;;;;;5063905;28;20035;-63
2024/01/19 05:29:58;;;;;;;47.75;35.83;;;8.00;9.20;;;;;;5066328;28;20040;-63
2024/01/19 05:32:23;;;;;;;46.42;35.78;;;8.00;8.10;;;;;;5066574;28;20071;-62
2024/01/19 05:34:49;;;;;;;52.80;39.60;;;8.00;6.90;;;;;;5048400;28;20045;-62
2024/01/19 05:37:15;;;;;;;48.60;40.78;;;8.20;7.00;;;;;;5065619;28;20066;-63
2024/01/19 05:39:40;;;;;;;46.30;40.63;;;8.20;8.00;;;;;;5063700;28;20501;-62
2024/01/19 05:42:06;;;;;;;52.50;41.65;;;8.40;7.50;;;;;;5065185;28;20447;-63
2024/01/19 05:44:32;;;;;;;45.97;34.75;;;8.30;5.50;;;;;;5066042;28;20048;-65
2024/01/19 05:46:57;;;;;;;53.20;33.25;;;8.50;4.30;;;;;;5065934;28;20370;-65
2024/01/19 05:49:23;;;;;;;47.75;33.20;;;8.40;3.30;;;;;;5065259;28;20259;-66
2024/01/19 05:51:48;;;;;;;42.53;32.33;;;8.60;3.50;;;;;;5064745;28;20568;-66
2024/01/19 05:54:14;;;;;;;44.95;34.60;;;8.60;3.00;;;;;;5065833;28;20051;-66
2024/01/19 05:56:39;;;;;;;60.05;39.08;;;8.60;4.30;;;;;;5065734;28;20032;-66
2024/01/19 05:59:05;;;;;;;47.75;35.92;;;8.50;6.30;;;;;;5065232;28;20141;-66
2024/01/19 06:01:30;;;;;;;50.83;40.55;;;8.50;7.10;;;;;;5066036;28;20149;-66
2024/01/19 06:03:58;;;;;;;50.70;41.25;;;8.70;2.90;;;;;;5057446;28;20040;-66
2024/01/19 06:06:24;;;;;;;60.88;41.53;;;8.60;1.00;;;;;;5056375;28;20041;-66
2024/01/19 06:08:49;;;;;;;56.35;42.30;;;8.60;1.00;;;;;;5065554;28;20040;-66
2024/01/19 06:11:15;;;;;;;56.10;42.15;;;8.50;1.00;;;;;;5065784;28;20385;-66
2024/01/19 06:13:41;;;;;;;65.35;43.70;;;8.60;1.00;;;;;;5065099;28;20041;-66
2024/01/19 06:16:06;;;;;;;60.22;40.35;;;8.40;1.00;;;;;;5065053;28;20047;-66
2024/01/19 06:18:34;;;;;;;56.15;41.10;;;8.60;1.00;;;;;;5047835;28;20173;-66
2024/01/19 06:21:02;;;;;;;57.75;35.75;;;8.50;2.10;;;;;;5065359;28;20036;-66
2024/01/19 06:23:28;;;;;;;66.32;37.17;;;8.50;3.20;;;;;;5038902;28;20040;-66
2024/01/19 06:25:54;;;;;;;49.90;39.08;;;8.50;3.10;;;;;;5053200;28;20044;-66
2024/01/19 06:28:21;;;;;;;44.47;35.67;;;8.30;1.00;;;;;;5055658;28;20525;-66
2024/01/19 06:30:46;;;;;;;35.45;31.17;;;8.50;1.00;;;;;;5064270;28;20417;-66
2024/01/19 06:33:12;;;;;;;35.00;31.30;;;8.70;1.00;;;;;;5047671;28;20032;-66
2024/01/19 06:35:37;;;;;;;38.45;30.85;;;8.80;1.00;;;;;;5065425;28;20032;-66
2024/01/19 06:38:06;;;;;;;33.38;29.88;;;8.70;1.00;;;;;;5064144;28;20080;-66
2024/01/19 06:40:32;;;;;;;40.88;32.30;;;8.80;1.00;;;;;;5056478;28;20056;-66
2024/01/19 06:42:57;;;;;;;39.53;31.70;;;8.80;1.00;;;;;;5058788;28;20446;-66
2024/01/19 06:45:23;;;;;;;38.60;30.85;;;8.80;1.00;;;;;;5064222;28;20076;-66
2024/01/19 06:47:48;;;;;;;36.45;32.53;;;8.90;1.00;;;;;;5062531;28;20032;-66
2024/01/19 06:50:14;;;;;;;32.78;29.67;;;9.00;1.00;;;;;;5067975;28;20044;-66
2024/01/19 06:52:39;;;;;;;33.65;28.25;;;9.10;1.00;;;;;;5062329;28;20037;-65
2024/01/19 06:55:05;;;;;;;38.72;29.52;;;9.20;1.00;;;;;;5062363;28;20047;-65
2024/01/19 06:57:31;;;;;;;32.83;28.15;;;8.90;1.00;;;;;;5066931;28;20089;-66
2024/01/19 06:59:57;;;;;;;37.97;29.95;;;8.80;1.00;;;;;;5068962;28;20455;-66
2024/01/19 07:02:23;;;;;;;34.45;30.90;;;9.00;1.00;;;;;;5066087;28;20119;-66
2024/01/19 07:04:49;;;;;;;35.55;29.58;;;9.10;1.00;;;;;;5068289;28;20449;-65
2024/01/19 07:07:15;;;;;;;31.65;28.38;;;9.00;1.00;;;;;;5053546;28;20070;-65
2024/01/19 07:09:41;;;;;;;35.28;29.65;;;9.10;1.00;;;;;;5059747;28;20044;-66
2024/01/19 07:12:06;;;;;;;42.85;30.05;;;9.10;1.00;;;;;;5075153;28;20036;-66
2024/01/19 07:14:32;;;;;;;48.00;33.03;;;9.00;1.00;;;;;;5051579;28;20040;-66
2024/01/19 07:16:57;;;;;;;44.13;30.45;;;9.00;1.00;;;;;;5066603;28;20123;-67
2024/01/19 07:19:23;;;;;;;32.97;28.60;;;9.10;1.00;;;;;;5047673;28;20049;-65
2024/01/19 07:21:49;;;;;;;31.52;27.88;;;9.20;1.00;;;;;;5061730;28;20033;-66
2024/01/19 07:24:14;;;;;;;32.25;26.60;;;9.20;1.00;;;;;;5064806;28;20544;-66
2024/01/19 07:26:40;;;;;;;28.50;25.88;;;9.20;1.00;;;;;;5063911;28;20052;-65
2024/01/19 07:29:07;;;;;;;29.10;26.02;;;9.20;1.00;;;;;;5063326;28;21705;-66
2024/01/19 07:31:33;;;;;;;30.05;23.85;;;9.30;1.00;;;;;;5063561;28;20045;-66
2024/01/19 07:33:59;;;;;;;29.02;22.77;;;9.30;1.00;;;;;;5067163;28;20087;-71
2024/01/19 07:36:25;;;;;;;35.95;25.75;;;9.30;1.00;;;;;;5028574;28;20061;-71
2024/01/19 07:38:50;;;;;;;27.23;24.67;;;9.50;1.00;;;;;;5063325;28;20151;-64
2024/01/19 07:41:16;;;;;;;30.45;25.38;;;9.50;1.00;;;;;;5065709;28;20041;-63
2024/01/19 07:43:41;;;;;;;35.22;26.98;;;9.40;1.00;;;;;;5063959;28;20059;-64
2024/01/19 07:46:07;;;;;;;28.13;25.15;;;9.30;1.00;;;;;;5048749;28;20040;-65
2024/01/19 07:48:32;;;;;;;30.70;25.20;;;9.30;1.00;;;;;;5054077;28;20045;-67
2024/01/19 07:50:58;;;;;;;34.47;26.17;;;9.30;1.00;;;;;;5054935;28;20040;-66
2024/01/19 07:53:24;;;;;;;30.88;27.75;;;9.30;1.00;;;;;;5050447;28;20036;-67
2024/01/19 07:55:49;;;;;;;34.17;27.42;;;9.20;1.00;;;;;;5052002;28;20068;-66
2024/01/19 07:58:16;;;;;;;36.92;27.05;;;9.20;1.00;;;;;;5067264;28;20036;-66
2024/01/19 08:00:41;;;;;;;30.25;27.02;;;9.30;1.00;;;;;;5048944;28;20127;-66
2024/01/19 08:03:08;;;;;;;35.33;25.67;;;9.30;1.00;;;;;;5068063;28;20529;-66
2024/01/19 08:05:33;;;;;;;36.80;25.35;;;9.20;1.00;;;;;;5066183;28;20048;-66
2024/01/19 08:07:59;;;;;;;30.58;25.65;;;9.20;1.00;;;;;;5047008;28;20502;-66
2024/01/19 08:10:25;;;;;;;33.08;25.67;;;9.10;1.00;;;;;;5068969;28;20458;-66
2024/01/19 08:12:50;;;;;;;37.17;25.85;;;9.10;1.00;;;;;;5070306;28;20032;-66
2024/01/19 08:15:16;;;;;;;34.40;26.15;;;9.10;1.00;;;;;;5081355;28;20067;-66
2024/01/19 08:17:42;;;;;;;39.60;27.60;;;9.20;1.00;;;;;;5063908;28;20451;-66
2024/01/19 08:20:11;;;;;;;43.10;27.85;;;9.10;1.00;;;;;;5046152;28;20045;-66
2024/01/19 08:22:37;;;;;;;32.75;27.60;;;9.00;1.00;;;;;;5068102;28;20064;-66
2024/01/19 08:25:04;;;;;;;43.47;27.75;;;9.10;1.00;;;;;;5066005;28;20063;-66
2024/01/19 08:27:30;;;;;;;39.08;27.88;;;9.00;1.00;;;;;;5063802;28;20386;-66
2024/01/19 08:29:56;;;;;;;40.92;28.52;;;8.90;1.00;;;;;;5065530;28;20039;-66
2024/01/19 08:32:23;;;;;;;40.15;30.13;;;9.00;1.00;;;;;;5046323;28;20037;-63
2024/01/19 08:34:48;;;;;;;42.28;31.27;;;9.00;1.00;;;;;;5067013;28;20086;-62
2024/01/19 08:37:14;;;;;;;52.95;33.03;;;9.00;1.00;;;;;;5051021;28;20052;-63
2024/01/19 08:39:40;;;;;;;47.90;33.13;;;8.90;1.00;;;;;;5068401;28;20051;-64
2024/01/19 08:42:06;;;;;;;57.40;34.65;;;8.80;1.00;;;;;;5064386;28;20072;-63
2024/01/19 08:44:32;;;;;;;48.97;38.42;;;9.00;1.00;;;;;;5062900;28;20419;-66
2024/01/19 08:46:57;;;;;;;58.33;41.22;;;9.10;1.00;;;;;;5067734;28;20032;-67
2024/01/19 08:49:24;;;;;;;53.30;39.70;;;9.00;1.00;;;;;;5065727;28;20051;-67
2024/01/19 08:51:51;;;;;;;53.17;40.70;;;9.10;1.00;;;;;;5064118;28;20040;-68
2024/01/19 08:54:17;;;;;;;57.60;38.17;;;9.30;1.00;;;;;;5048076;28;20443;-67
2024/01/19 08:56:43;;;;;;;55.17;38.92;;;9.50;1.00;;;;;;5052064;28;20489;-67
2024/01/19 08:59:08;;;;;;;50.47;40.05;;;9.40;1.00;;;;;;5063246;28;20033;-67
2024/01/19 09:01:34;;;;;;;51.63;41.72;;;9.40;1.00;;;;;;5047226;28;20044;-68
2024/01/19 09:04:00;;;;;;;63.33;39.92;;;9.50;1.00;;;;;;5063347;28;20078;-67
2024/01/19 09:06:25;;;;;;;43.55;36.55;;;9.70;1.00;;;;;;5045578;28;20040;-67
2024/01/19 09:08:51;;;;;;;48.00;35.85;;;9.70;1.00;;;;;;5046826;28;20076;-67
2024/01/19 09:11:16;;;;;;;39.08;34.92;;;9.70;1.00;;;;;;5063747;28;20032;-67
2024/01/19 09:13:42;;;;;;;43.58;35.30;;;9.70;1.00;;;;;;5063308;28;20039;-66
2024/01/19 09:16:09;;;;;;;46.13;32.30;;;9.70;1.00;;;;;;5065043;28;20041;-64
2024/01/19 09:18:36;;;;;;;53.60;33.78;;;9.80;1.00;;;;;;5064858;28;20044;-64
2024/01/19 09:21:02;;;;;;;52.60;36.80;;;9.80;1.00;;;;;;5034718;28;20051;-63
2024/01/19 09:23:27;;;;;;;57.38;37.53;;;9.60;1.00;;;;;;5064917;28;20040;-65
2024/01/19 09:25:53;;;;;;;51.40;35.28;;;9.60;1.00;;;;;;5064582;28;20028;-65
2024/01/19 09:28:19;;;;;;;40.70;32.75;;;9.60;1.00;;;;;;5063832;28;20047;-65
2024/01/19 09:30:44;;;;;;;38.65;30.40;;;9.80;1.00;;;;;;5046451;28;20052;-65
2024/01/19 09:33:10;;;;;;;32.40;27.95;;;9.80;1.00;;;;;;5063706;28;20516;-65
2024/01/19 09:35:37;;;;;;;31.60;27.98;;;9.90;1.00;;;;;;5065021;28;20040;-65
2024/01/19 09:38:02;;;;;;;32.75;27.05;;;10.00;1.00;;;;;;5044717;28;20072;-65
2024/01/19 09:40:28;;;;;;;33.20;26.80;;;10.00;1.00;;;;;;5064415;28;20545;-65
2024/01/19 09:42:54;;;;;;;32.67;27.05;;;10.10;1.00;;;;;;5064011;28;20518;-65
2024/01/19 09:45:22;;;;;;;36.88;27.35;;;10.10;1.00;;;;;;5066904;28;20048;-64
2024/01/19 09:47:53;;;;;;;36.58;28.67;;;9.90;1.00;;;;;;5063928;28;20036;-64
2024/01/19 09:50:22;;;;;;;35.28;27.77;;;10.00;1.00;;;;;;5063170;28;20040;-64
2024/01/19 09:53:01;;;;;;;33.60;26.67;;;10.20;1.00;;;;;;5043904;28;20036;-65
2024/01/19 09:55:27;;;;;;;38.15;26.52;;;10.10;1.00;;;;;;5064692;28;20448;-65
2024/01/19 09:57:55;;;;;;;35.88;27.30;;;10.30;1.00;;;;;;5063195;28;20036;-65
2024/01/19 10:00:21;;;;;;;33.95;27.23;;;10.30;1.00;;;;;;5064798;28;21570;-65
2024/01/19 10:02:51;;;;;;;31.42;27.52;;;10.20;1.00;;;;;;5062572;28;20048;-65
2024/01/19 10:05:18;;;;;;;33.65;30.15;;;10.30;1.00;;;;;;5046382;28;20047;-65
2024/01/19 10:07:49;;;;;;;30.70;27.63;;;10.20;1.00;;;;;;5065484;28;20048;-65
2024/01/19 10:10:15;;;;;;;31.70;27.52;;;10.40;1.00;;;;;;5064459;28;20619;-64
2024/01/19 10:12:41;;;;;;;40.58;26.90;;;10.30;1.00;;;;;;5062913;28;20444;-65
2024/01/19 10:15:11;;;;;;;33.50;27.42;;;10.30;1.00;;;;;;5060118;28;20040;-65
2024/01/19 10:17:37;;;;;;;34.35;29.27;;;10.50;1.00;;;;;;5043934;28;20051;-67
2024/01/19 10:20:04;;;;;;;33.67;27.60;;;10.40;1.00;;;;;;5062488;28;20044;-64
2024/01/19 10:22:30;;;;;;;39.28;30.42;;;10.60;1.00;;;;;;5061817;28;20052;-70
2024/01/19 10:25:00;;;;;;;32.30;28.20;;;10.60;1.00;;;;;;5045022;28;20040;-66
2024/01/19 10:27:45;;;;;;;40.63;29.83;;;10.60;1.00;;;;;;5062184;28;20048;-65
2024/01/19 10:30:27;;;;;;;35.33;29.17;;;10.50;1.00;;;;;;5060627;28;20063;-66
2024/01/19 10:33:02;;;;;;;36.25;31.02;;;10.60;1.00;;;;;;5043001;28;20139;-64
2024/01/19 10:35:28;;;;;;;40.15;28.98;;;10.70;1.00;;;;;;5063335;28;20066;-66
2024/01/19 10:38:04;;;;;;;46.03;29.55;;;10.80;1.00;;;;;;5064288;28;20572;-65
2024/01/19 10:40:31;;;;;;;40.35;30.15;;;10.70;1.00;;;;;;5064092;28;20080;-66
2024/01/19 10:42:57;;;;;;;50.78;31.55;;;10.60;1.00;;;;;;5063584;28;20048;-64
2024/01/19 10:45:23;;;;;;;39.97;30.50;;;10.60;1.00;;;;;;5064205;28;20040;-65
2024/01/19 10:47:51;;;;;;;33.38;29.58;;;10.80;1.00;;;;;;5045626;28;20048;-65
2024/01/19 10:50:17;;;;;;;43.53;32.80;;;10.60;1.00;;;;;;5027406;28;20045;-64
2024/01/19 10:52:44;;;;;;;46.40;33.53;;;10.60;1.00;;;;;;5027093;28;20102;-65
2024/01/19 10:55:17;;;;;;;48.50;33.10;;;10.70;1.00;;;;;;5054208;28;20075;-66
2024/01/19 10:57:43;;;;;;;45.30;31.75;;;11.40;1.00;;;;;;5058048;28;20037;-64
2024/01/19 11:00:20;;;;;;;39.83;32.20;;;10.60;1.00;;;;;;5064029;28;20257;-66
2024/01/19 11:02:48;;;;;;;43.47;31.77;;;10.70;1.00;;;;;;5062128;28;20036;-66
2024/01/19 11:05:17;;;;;;;42.35;32.35;;;10.90;1.00;;;;;;5063508;28;20511;-64
2024/01/19 11:07:42;;;;;;;43.75;31.55;;;10.70;1.00;;;;;;5062817;28;20048;-64
2024/01/19 11:10:08;;;;;;;39.70;30.00;;;10.80;1.00;;;;;;5064201;28;20409;-64
2024/01/19 11:12:38;;;;;;;42.30;30.58;;;10.90;1.00;;;;;;5062490;28;20041;-66
2024/01/19 11:15:09;;;;;;;40.42;30.83;;;10.80;1.00;;;;;;5045088;28;20055;-66
2024/01/19 11:17:36;;;;;;;36.90;31.33;;;10.80;1.00;;;;;;5068093;28;20085;-67
2024/01/19 11:20:02;;;;;;;41.45;31.40;;;11.10;1.00;;;;;;5066810;28;20052;-64
2024/01/19 11:22:28;;;;;;;35.13;31.45;;;11.00;1.00;;;;;;5064182;28;20438;-65
2024/01/19 11:25:01;;;;;;;35.75;30.63;;;11.00;1.00;;;;;;5047705;28;20135;-65
2024/01/19 11:27:36;;;;;;;40.42;33.03;;;11.00;1.00;;;;;;5068016;28;20032;-64
2024/01/19 11:30:11;;;;;;;36.00;32.08;;;11.30;1.00;;;;;;5070232;28;20432;-64
2024/01/19 11:32:37;;;;;;;36.95;30.90;;;11.10;1.00;;;;;;5065924;28;20079;-67
2024/01/19 11:35:03;;;;;;;35.20;29.90;;;11.20;1.00;;;;;;5052922;28;20575;-63
2024/01/19 11:37:43;;;;;;;37.95;28.88;;;11.20;1.00;;;;;;5067937;28;20061;-64
2024/01/19 11:40:09;;;;;;;34.35;28.75;;;11.30;1.00;;;;;;5063262;28;20429;-63
2024/01/19 11:42:34;;;;;;;33.83;28.25;;;11.30;1.00;;;;;;5064412;28;20051;-64
2024/01/19 11:45:00;;;;;;;43.40;28.85;;;11.00;1.00;;;;;;5062470;28;20040;-63
2024/01/19 11:47:35;;;;;;;32.50;28.67;;;11.20;1.00;;;;;;5065118;28;20047;-63
2024/01/19 11:50:05;;;;;;;37.97;29.42;;;10.90;1.00;;;;;;5067468;28;20093;-63
2024/01/19 11:52:35;;;;;;;34.35;28.80;;;11.10;1.00;;;;;;5070039;28;20028;-63
2024/01/19 11:55:26;;;;;;;35.17;27.63;;;11.00;1.00;;;;;;5069437;28;20537;-64
2024/01/19 11:57:52;;;;;;;35.65;28.02;;;10.90;1.00;;;;;;5068617;28;20505;-64
2024/01/19 12:00:19;;;;;;;31.50;27.10;;;11.00;1.00;;;;;;5068684;28;20044;-62
2024/01/19 12:02:45;;;;;;;34.53;28.10;;;11.00;1.00;;;;;;5065716;28;20048;-64
2024/01/19 12:05:12;;;;;;;34.00;28.83;;;11.00;1.00;;;;;;5044836;28;20048;-63
2024/01/19 12:07:37;;;;;;;30.08;26.10;;;10.90;1.00;;;;;;5064969;28;20046;-63
2024/01/19 12:10:07;;;;;;;30.92;26.77;;;10.80;1.00;;;;;;5072930;28;20480;-63
2024/01/19 12:12:34;;;;;;;29.58;26.23;;;10.80;1.00;;;;;;5062796;28;20086;-62
2024/01/19 12:15:10;;;;;;;28.60;25.73;;;11.00;1.00;;;;;;5064624;28;20043;-63
2024/01/19 12:17:37;;;;;;;;;;;10.90;1.00;;;;;;5068392;28;20040;-62
2024/01/19 12:20:03;;;;;;;31.08;27.65;;;10.90;1.00;;;;;;5048265;28;20304;-62
2024/01/19 12:22:30;;;;;;;29.88;26.75;;;10.90;1.00;;;;;;5067432;28;20040;-63
2024/01/19 12:25:19;;;;;;;32.95;29.55;;;11.00;1.00;;;;;;5070135;28;20044;-62
2024/01/19 12:27:47;;;;;;;36.58;29.25;;;10.90;1.00;;;;;;5062073;28;20528;-63
2024/01/19 12:30:17;;;;;;;34.78;28.48;;;10.90;1.00;;;;;;5058531;28;20044;-63
2024/01/19 12:32:45;;;;;;;33.47;29.00;;;10.90;1.00;;;;;;5064258;28;20040;-65
2024/01/19 12:35:11;;;;;;;37.92;30.10;;;10.80;1.00;;;;;;5057275;28;20051;-63
2024/01/19 12:37:37;;;;;;;41.28;29.80;;;10.90;1.00;;;;;;5041711;28;20394;-63